Time;durP1;ratioP1;P1;durP2;ratioP2;P2;SDS_P1;SDS_P2;PMS_P1;PMS_P2;Temp;Humidity;BMP_temperature;BMP_pressure;BME280_temperature;BME280_humidity;BME280_pressure;Samples;Min_cycle;Max_cycle;Signal;HPM_P1;HPM_P2
2021/10/09 00:00:17;;;;;;;26.50;14.20;;;;;;;7.29;98.91;102450.44;112672;1190;72656;-82
2021/10/09 00:02:44;;;;;;;28.00;15.50;;;;;;;7.26;98.52;102452.93;112774;1190;60127;-81
2021/10/09 00:05:11;;;;;;;22.90;13.50;;;;;;;7.22;98.30;102450.09;112926;1190;60623;-84
2021/10/09 00:07:38;;;;;;;25.30;13.90;;;;;;;7.17;97.96;102450.48;113273;1190;74837;-82
2021/10/09 00:10:07;;;;;;;21.20;12.90;;;;;;;7.08;97.08;102446.17;112928;1192;72080;-83
2021/10/09 00:12:35;;;;;;;20.50;12.50;;;;;;;6.98;96.90;102450.21;113269;1192;72648;-83
2021/10/09 00:15:04;;;;;;;23.20;14.80;;;;;;;6.88;97.11;102452.13;112753;1192;60152;-83
2021/10/09 00:17:31;;;;;;;22.60;13.40;;;;;;;6.82;97.66;102456.40;112885;1192;61009;-85
2021/10/09 00:19:57;;;;;;;33.00;14.80;;;;;;;6.79;97.99;102457.00;112681;1192;75665;-84
2021/10/09 00:22:24;;;;;;;26.50;15.00;;;;;;;6.75;98.18;102455.14;112626;1192;72004;-82
2021/10/09 00:24:51;;;;;;;21.80;13.30;;;;;;;6.72;98.18;102453.06;112594;1192;73595;-83
2021/10/09 00:27:18;;;;;;;26.50;14.70;;;;;;;6.68;98.12;102455.09;112931;1190;63022;-85
2021/10/09 00:29:44;;;;;;;25.20;14.10;;;;;;;6.64;97.93;102453.95;112512;1191;60189;-82
2021/10/09 00:32:11;;;;;;;23.70;14.10;;;;;;;6.60;98.07;102452.86;112667;1190;60161;-81
2021/10/09 00:34:38;;;;;;;25.10;13.20;;;;;;;6.55;98.09;102451.95;112711;1190;70932;-81
2021/10/09 00:37:04;;;;;;;25.40;14.90;;;;;;;6.49;98.33;102453.74;112676;1190;60328;-81
2021/10/09 00:39:31;;;;;;;24.00;14.50;;;;;;;6.42;98.05;102452.65;112552;1192;61883;-83
2021/10/09 00:41:58;;;;;;;25.30;14.10;;;;;;;6.37;98.06;102451.59;112586;1192;60310;-83
2021/10/09 00:44:26;;;;;;;25.80;14.20;;;;;;;6.31;98.03;102455.88;112491;1190;74622;-83
2021/10/09 00:47:01;;;;;;;22.50;13.50;;;;;;;6.28;98.33;102451.30;112565;1190;71055;-84
2021/10/09 00:49:30;;;;;;;24.00;13.60;;;;;;;6.22;97.95;102449.61;112757;1191;73647;-82
2021/10/09 00:51:59;;;;;;;28.80;14.20;;;;;;;6.19;98.68;102454.40;112570;1190;63105;-82
2021/10/09 00:54:27;;;;;;;23.00;12.90;;;;;;;6.18;98.86;102452.89;112639;1192;61236;-82
2021/10/09 00:56:57;;;;;;;24.70;13.40;;;;;;;6.14;98.92;102452.25;112712;1190;75052;-82
2021/10/09 00:59:25;;;;;;;27.10;14.80;;;;;;;6.10;98.92;102452.54;112710;1190;71479;-82
2021/10/09 01:01:53;;;;;;;27.50;13.50;;;;;;;6.05;98.66;102449.55;112592;1190;74458;-81
2021/10/09 01:04:20;;;;;;;27.80;14.80;;;;;;;6.00;98.49;102446.55;112906;1192;61742;-83
2021/10/09 01:06:47;;;;;;;25.40;15.30;;;;;;;5.97;98.79;102449.86;112768;1192;60228;-81
2021/10/09 01:09:13;;;;;;;26.40;15.40;;;;;;;5.94;98.90;102455.86;112695;1192;74763;-82
2021/10/09 01:11:40;;;;;;;21.70;13.90;;;;;;;5.89;98.50;102454.08;112673;1193;71959;-82
2021/10/09 01:14:08;;;;;;;25.60;13.00;;;;;;;5.84;98.43;102448.39;112613;1190;72594;-81
2021/10/09 01:16:35;;;;;;;22.40;13.50;;;;;;;5.80;98.68;102447.48;112610;1192;61130;-81
2021/10/09 01:19:02;;;;;;;23.60;12.30;;;;;;;5.75;98.69;102446.02;112717;1192;60222;-84
2021/10/09 01:21:47;;;;;;;26.80;14.60;;;;;;;5.71;98.92;102442.08;112663;1184;73856;-83
2021/10/09 01:24:15;;;;;;;24.40;13.60;;;;;;;5.66;99.11;102444.30;112850;1190;71374;-81
2021/10/09 01:26:42;;;;;;;28.30;15.60;;;;;;;5.63;99.21;102443.64;112726;1190;72695;-83
2021/10/09 01:29:14;;;;;;;27.60;14.90;;;;;;;5.61;99.29;102440.98;112690;1192;63369;-82
2021/10/09 01:31:40;;;;;;;40.70;15.70;;;;;;;5.58;99.03;102443.11;112815;1190;61145;-84
2021/10/09 01:34:07;;;;;;;30.90;15.30;;;;;;;5.54;99.04;102441.09;112706;1192;73660;-83
2021/10/09 01:36:38;;;;;;;30.50;17.90;;;;;;;5.50;99.10;102441.66;112802;1192;72601;-82
2021/10/09 01:39:07;;;;;;;24.60;15.10;;;;;;;5.50;99.92;102439.06;112654;1190;72579;-83
2021/10/09 01:41:42;;;;;;;32.80;15.50;;;;;;;5.50;99.95;102438.35;112572;1193;60755;-83
2021/10/09 01:44:10;;;;;;;25.60;14.40;;;;;;;5.50;100.00;102436.02;112863;1190;60235;-83
2021/10/09 01:46:37;;;;;;;25.70;13.20;;;;;;;5.52;100.00;102435.60;112814;1190;75578;-83
2021/10/09 01:49:05;;;;;;;27.90;14.00;;;;;;;5.47;99.83;102430.09;112867;1190;71150;-81
2021/10/09 01:51:32;;;;;;;27.20;13.70;;;;;;;5.44;99.93;102430.30;112927;1192;72734;-82
2021/10/09 01:54:00;;;;;;;23.80;13.70;;;;;;;5.41;99.94;102429.61;112664;1190;62638;-83
2021/10/09 01:56:26;;;;;;;30.00;15.10;;;;;;;5.38;99.78;102431.73;112837;1190;61517;-86
2021/10/09 01:58:53;;;;;;;30.20;14.30;;;;;;;5.35;99.89;102429.64;112602;1190;73551;-82
2021/10/09 02:01:20;;;;;;;26.50;14.60;;;;;;;5.34;99.86;102427.84;112538;1192;71954;-82
2021/10/09 02:03:48;;;;;;;26.80;14.70;;;;;;;5.30;99.79;102425.39;112592;1192;72378;-82
2021/10/09 02:06:16;;;;;;;25.30;14.20;;;;;;;5.27;99.87;102427.34;112685;1190;63130;-82
2021/10/09 02:08:44;;;;;;;25.20;13.60;;;;;;;5.23;99.69;102424.96;112730;1190;61225;-83
2021/10/09 02:11:15;;;;;;;24.30;14.40;;;;;;;5.21;99.92;102422.09;112897;1192;73771;-83
2021/10/09 02:13:50;;;;;;;26.90;15.10;;;;;;;5.20;99.96;102422.54;112503;1191;73164;-81
2021/10/09 02:24:51;;;;;;;;;;;;;;;5.11;100.00;102423.59;112762;1190;75360;-83
2021/10/09 02:27:17;;;;;;;28.00;13.30;;;;;;;5.12;100.00;102418.11;112800;1190;72178;-84
2021/10/09 02:29:44;;;;;;;22.00;12.50;;;;;;;5.11;100.00;102416.27;112671;1190;60241;-85
2021/10/09 02:32:10;;;;;;;20.30;12.10;;;;;;;5.08;100.00;102411.34;112570;1192;60288;-83
2021/10/09 02:34:37;;;;;;;24.70;13.20;;;;;;;5.06;100.00;102411.15;112645;1190;60242;-84
2021/10/09 02:37:04;;;;;;;31.20;15.30;;;;;;;5.03;100.00;102406.95;112656;1190;60242;-82
2021/10/09 02:39:30;;;;;;;30.40;15.80;;;;;;;5.01;100.00;102410.23;112488;1190;60252;-83
2021/10/09 02:41:58;;;;;;;27.90;14.10;;;;;;;4.98;100.00;102411.67;112631;1190;72645;-83
2021/10/09 02:44:25;;;;;;;23.50;13.40;;;;;;;4.97;100.00;102412.92;112710;1190;60226;-86
2021/10/09 02:46:51;;;;;;;23.90;13.30;;;;;;;4.97;100.00;102413.33;112552;1190;60242;-84
2021/10/09 02:49:18;;;;;;;25.70;14.10;;;;;;;4.97;100.00;102413.84;112561;1192;73604;-83
2021/10/09 02:51:45;;;;;;;22.20;13.30;;;;;;;4.97;100.00;102414.15;112705;1190;60254;-83
2021/10/09 02:54:11;;;;;;;23.80;13.60;;;;;;;4.97;100.00;102415.58;112481;1177;73559;-81
2021/10/09 02:56:38;;;;;;;24.40;12.90;;;;;;;4.96;100.00;102417.73;112685;1190;60773;-82
2021/10/09 02:59:04;;;;;;;23.40;12.90;;;;;;;4.95;100.00;102414.69;112636;1193;60267;-83
2021/10/09 03:01:31;;;;;;;28.30;13.80;;;;;;;4.93;100.00;102414.59;112668;1190;73965;-83
2021/10/09 03:03:58;;;;;;;34.10;16.00;;;;;;;4.91;100.00;102417.50;112872;1190;71182;-83
2021/10/09 03:06:25;;;;;;;28.10;13.90;;;;;;;4.88;100.00;102414.18;113813;1190;60242;-84
2021/10/09 03:08:52;;;;;;;27.60;14.10;;;;;;;4.86;100.00;102412.59;113385;1192;60622;-83
2021/10/09 03:11:20;;;;;;;27.70;13.40;;;;;;;4.85;100.00;102411.05;112712;1190;60272;-82
2021/10/09 03:13:46;;;;;;;30.70;14.30;;;;;;;4.84;100.00;102417.42;112741;1190;75961;-84
2021/10/09 03:16:13;;;;;;;25.50;13.70;;;;;;;4.83;100.00;102411.66;112764;1190;71757;-84
2021/10/09 03:18:44;;;;;;;29.50;13.90;;;;;;;4.82;100.00;102417.34;112795;1192;72509;-84
2021/10/09 03:21:12;;;;;;;24.20;12.30;;;;;;;4.81;100.00;102416.89;112635;1190;60537;-84
2021/10/09 03:23:38;;;;;;;25.10;12.50;;;;;;;4.80;100.00;102413.48;112681;1191;60249;-83
2021/10/09 03:26:05;;;;;;;14.20;9.20;;;;;;;4.78;100.00;102416.96;112698;1193;73914;-81
2021/10/09 03:28:32;;;;;;;20.70;10.70;;;;;;;4.74;100.00;102413.30;112777;1192;70960;-82
2021/10/09 03:30:58;;;;;;;20.20;12.10;;;;;;;4.70;100.00;102413.89;112831;1192;73948;-83
2021/10/09 03:33:29;;;;;;;28.50;13.60;;;;;;;4.66;100.00;102415.88;112848;1192;62530;-83
2021/10/09 03:35:56;;;;;;;22.00;12.30;;;;;;;4.63;99.99;102417.48;112975;1190;60388;-83
2021/10/09 03:38:24;;;;;;;25.40;13.00;;;;;;;4.61;100.00;102418.16;112726;1192;73989;-83
2021/10/09 03:40:59;;;;;;;21.50;12.90;;;;;;;4.59;100.00;102417.36;112891;1192;71094;-84
2021/10/09 03:43:28;;;;;;;26.60;12.80;;;;;;;4.58;100.00;102423.27;113063;1190;72800;-83
2021/10/09 03:48:43;;;;;;;28.10;12.70;;;;;;;4.55;100.00;102426.20;112972;1192;60178;-84
2021/10/09 03:54:04;;;;;;;23.40;12.70;;;;;;;4.53;100.00;102421.41;112892;1190;72250;-82
2021/10/09 03:56:30;;;;;;;18.10;9.30;;;;;;;4.53;100.00;102418.48;112774;1192;73979;-82
2021/10/09 03:59:05;;;;;;;27.00;12.00;;;;;;;4.49;100.00;102419.35;112827;1192;62118;-83
2021/10/09 04:01:32;;;;;;;25.50;12.50;;;;;;;4.47;100.00;102419.30;112810;1190;60565;-83
2021/10/09 04:03:59;;;;;;;21.40;12.80;;;;;;;4.45;100.00;102416.61;112792;1190;74888;-84
2021/10/09 04:06:26;;;;;;;28.20;12.50;;;;;;;4.41;100.00;102414.75;112860;1190;70641;-82
2021/10/09 04:08:53;;;;;;;27.60;12.60;;;;;;;4.41;100.00;102417.94;112754;1192;74161;-82
2021/10/09 04:11:19;;;;;;;20.90;12.60;;;;;;;4.40;100.00;102423.98;112635;1192;62936;-83
2021/10/09 04:13:46;;;;;;;24.10;12.40;;;;;;;4.38;100.00;102420.20;112702;1192;60256;-84
2021/10/09 04:16:13;;;;;;;23.70;11.00;;;;;;;4.34;100.00;102416.42;112687;1192;73034;-83
2021/10/09 04:18:40;;;;;;;19.30;12.30;;;;;;;4.35;100.00;102416.90;112681;1192;71991;-83
2021/10/09 04:21:06;;;;;;;21.80;11.70;;;;;;;4.33;100.00;102415.59;112712;1190;73617;-83
2021/10/09 04:23:33;;;;;;;23.70;12.00;;;;;;;4.32;100.00;102414.81;112666;1193;60354;-83
2021/10/09 04:26:00;;;;;;;26.80;13.00;;;;;;;4.32;100.00;102422.15;112905;1190;61222;-82
2021/10/09 04:28:26;;;;;;;22.30;11.40;;;;;;;4.31;100.00;102420.61;112839;1190;59027;-81
2021/10/09 04:30:53;;;;;;;19.70;11.90;;;;;;;4.31;100.00;102424.31;112824;1190;60324;-82
2021/10/09 04:33:19;;;;;;;19.50;11.00;;;;;;;4.30;100.00;102423.50;112868;1192;72663;-81
2021/10/09 04:35:48;;;;;;;24.00;10.90;;;;;;;4.27;100.00;102418.77;112828;1190;62979;-82
2021/10/09 04:38:15;;;;;;;21.90;11.70;;;;;;;4.24;100.00;102415.79;112959;1190;60798;-82
2021/10/09 04:40:41;;;;;;;18.10;10.50;;;;;;;4.20;99.88;102415.69;112828;1192;74597;-82
2021/10/09 04:43:08;;;;;;;17.00;10.30;;;;;;;4.15;99.86;102414.06;112666;1192;72604;-80
2021/10/09 04:45:35;;;;;;;27.80;11.90;;;;;;;4.10;99.65;102414.90;112572;1192;74850;-81
2021/10/09 04:50:42;;;;;;;25.50;11.30;;;;;;;4.02;99.74;102419.38;112617;1193;60262;-81
2021/10/09 04:53:09;;;;;;;27.50;11.80;;;;;;;3.99;99.77;102420.27;112675;1193;60263;-80
2021/10/09 04:55:38;;;;;;;23.90;11.90;;;;;;;3.96;99.76;102419.55;112222;1194;71161;-80
2021/10/09 04:58:07;;;;;;;18.90;10.90;;;;;;;3.91;99.61;102419.33;112586;1193;73316;-81
2021/10/09 05:00:34;;;;;;;21.80;11.20;;;;;;;3.87;99.64;102416.54;112935;1193;61829;-81
2021/10/09 05:03:01;;;;;;;19.50;10.70;;;;;;;3.81;99.70;102413.41;112458;1193;60727;-82
2021/10/09 05:05:28;;;;;;;18.80;9.70;;;;;;;3.78;99.43;102417.79;112377;1193;72345;-80
2021/10/09 05:07:55;;;;;;;23.70;11.10;;;;;;;3.73;99.85;102417.02;112338;1193;70910;-80
2021/10/09 05:10:24;;;;;;;21.50;11.40;;;;;;;3.71;99.85;102419.09;112724;1195;60223;-82
2021/10/09 05:13:03;;;;;;;21.80;12.10;;;;;;;3.67;99.88;102417.50;112225;1196;61695;-82
2021/10/09 05:15:29;;;;;;;23.90;12.40;;;;;;;3.66;99.88;102421.95;112435;1193;61491;-82
2021/10/09 05:17:56;;;;;;;23.80;11.40;;;;;;;3.65;99.97;102425.17;112291;1195;74588;-80
2021/10/09 05:20:23;;;;;;;24.90;11.60;;;;;;;3.62;99.95;102421.64;112261;1195;60412;-82
2021/10/09 05:22:49;;;;;;;23.60;11.70;;;;;;;3.61;99.97;102424.86;112385;1193;72859;-82
2021/10/09 05:25:16;;;;;;;22.00;11.50;;;;;;;3.61;100.00;102426.44;112709;1193;61870;-82
2021/10/09 05:27:53;;;;;;;19.20;12.20;;;;;;;3.61;100.00;102430.48;112756;1193;60362;-81
2021/10/09 05:30:19;;;;;;;19.40;10.90;;;;;;;3.60;100.00;102431.19;112319;1195;73885;-81
2021/10/09 05:32:48;;;;;;;20.50;11.40;;;;;;;3.59;100.00;102433.73;112186;1195;60295;-80
2021/10/09 05:35:14;;;;;;;24.30;11.30;;;;;;;3.61;100.00;102439.56;112432;1193;71929;-81
2021/10/09 05:37:41;;;;;;;20.30;11.40;;;;;;;3.59;100.00;102437.56;112474;1193;61481;-81
2021/10/09 05:40:08;;;;;;;23.50;11.10;;;;;;;3.58;100.00;102441.86;112277;1193;60282;-82
2021/10/09 05:42:35;;;;;;;28.20;13.30;;;;;;;3.57;100.00;102443.96;112142;1193;74104;-80
2021/10/09 05:45:01;;;;;;;26.60;13.30;;;;;;;3.56;100.00;102444.93;112754;1193;60203;-81
2021/10/09 05:47:30;;;;;;;20.60;13.00;;;;;;;3.55;100.00;102447.63;112361;1192;60195;-79
2021/10/09 05:49:58;;;;;;;26.60;13.70;;;;;;;3.54;99.98;102451.17;113983;1192;63298;-81
2021/10/09 05:53:12;;;;;;;21.10;11.50;;;;;;;3.52;100.00;102455.61;112867;1192;60694;-82
2021/10/09 05:55:30;;;;;;;25.20;12.20;;;;;;;3.53;100.00;102455.05;112549;1192;73771;-82
2021/10/09 05:58:06;;;;;;;24.10;11.90;;;;;;;3.54;100.00;102457.30;112412;1195;70695;-80
2021/10/09 06:44:37;;;;;;;17.90;9.70;;;;;;;4.32;98.79;102487.84;112652;1193;60548;-81
2021/10/09 06:47:26;;;;;;;15.70;8.30;;;;;;;4.36;98.78;102488.66;113044;1192;60664;-79
2021/10/09 07:00:59;;;;;;;21.30;8.80;;;;;;;4.57;97.98;102484.64;112233;1193;60439;-72
2021/10/09 07:03:26;;;;;;;25.20;11.20;;;;;;;4.63;97.71;102483.75;112094;1193;73644;-75
2021/10/09 07:05:52;;;;;;;21.30;9.20;;;;;;;4.70;98.04;102485.96;112312;1192;60214;-72
2021/10/09 07:08:19;;;;;;;18.40;8.70;;;;;;;4.78;98.03;102487.71;112164;1192;60246;-72
2021/10/09 07:10:47;;;;;;;20.80;10.30;;;;;;;4.86;97.80;102487.56;112101;1193;60901;-72
2021/10/09 07:13:15;;;;;;;18.70;10.20;;;;;;;4.94;97.88;102489.20;112255;1192;60853;-72
2021/10/09 07:15:42;;;;;;;20.00;8.40;;;;;;;5.02;97.60;102494.52;112363;1192;73743;-75
2021/10/09 07:18:11;;;;;;;19.60;10.20;;;;;;;5.08;97.71;102494.67;112275;1193;70439;-72
2021/10/09 07:20:40;;;;;;;15.80;9.70;;;;;;;5.16;97.59;102492.77;112397;1192;73907;-73
2021/10/09 07:23:10;;;;;;;21.70;9.80;;;;;;;5.25;97.33;102494.14;111971;1193;60141;-72
2021/10/09 07:25:38;;;;;;;19.50;9.60;;;;;;;5.33;97.07;102495.90;112137;1192;61418;-71
2021/10/09 07:28:05;;;;;;;22.10;10.70;;;;;;;5.42;96.73;102499.05;112504;1193;74792;-73
2021/10/09 07:30:32;;;;;;;21.70;9.50;;;;;;;5.51;96.73;102506.19;112349;1192;72109;-72
2021/10/09 07:32:59;;;;;;;19.40;9.80;;;;;;;5.63;96.69;102507.21;112249;1193;60265;-72
2021/10/09 07:35:25;;;;;;;20.40;10.90;;;;;;;5.75;96.52;102511.88;112268;1192;61912;-72
2021/10/09 07:37:52;;;;;;;22.20;10.20;;;;;;;5.87;96.43;102511.97;112291;1192;60214;-72
2021/10/09 07:40:19;;;;;;;14.00;7.30;;;;;;;5.97;95.77;102512.07;112391;1192;60239;-72
2021/10/09 07:42:47;;;;;;;13.80;7.70;;;;;;;6.04;94.99;102514.71;112576;1192;71126;-73
2021/10/09 07:45:14;;;;;;;19.20;8.30;;;;;;;6.13;95.16;102517.85;112595;1191;73391;-72
2021/10/09 07:47:42;;;;;;;19.60;9.10;;;;;;;6.25;94.86;102522.71;112130;1192;62996;-71
2021/10/09 07:50:10;;;;;;;17.50;5.90;;;;;;;6.35;94.49;102521.70;112484;1192;60226;-71
2021/10/09 07:52:38;;;;;;;18.40;10.40;;;;;;;6.45;93.60;102520.09;112232;1193;75271;-72
2021/10/09 07:55:05;;;;;;;19.00;8.40;;;;;;;6.55;93.32;102520.02;112482;1192;71998;-72
2021/10/09 07:57:32;;;;;;;14.00;7.70;;;;;;;6.62;92.81;102521.98;112314;1192;73568;-72
2021/10/09 07:59:58;;;;;;;15.80;8.00;;;;;;;6.69;92.26;102526.05;112396;1192;60252;-71
2021/10/09 08:02:25;;;;;;;19.20;9.50;;;;;;;6.76;92.23;102531.89;112209;1192;60307;-73
2021/10/09 08:04:51;;;;;;;18.40;8.40;;;;;;;6.84;91.66;102527.17;112287;1192;74796;-72
2021/10/09 08:07:18;;;;;;;15.60;7.40;;;;;;;6.91;91.81;102529.46;112275;1192;71506;-71
2021/10/09 08:09:45;;;;;;;16.40;7.70;;;;;;;7.01;91.05;102529.14;112225;1193;72565;-74
2021/10/09 08:12:12;;;;;;;15.80;7.90;;;;;;;7.11;90.75;102530.05;112196;1193;63371;-73
2021/10/09 08:14:38;;;;;;;12.10;7.00;;;;;;;7.20;90.37;102530.28;112117;1193;60214;-73
2021/10/09 08:17:05;;;;;;;14.70;7.40;;;;;;;7.29;89.57;102532.11;112194;1192;60252;-74
2021/10/09 08:19:31;;;;;;;20.00;8.80;;;;;;;7.35;89.40;102532.52;112247;1192;71980;-72
2021/10/09 08:22:01;;;;;;;21.50;8.20;;;;;;;7.45;89.44;102529.09;112375;1193;60245;-71
2021/10/09 08:24:51;;;;;;;14.60;6.00;;;;;;;7.56;89.59;102527.23;111981;1192;60480;-74
2021/10/09 08:35:38;;;;;;;21.50;9.60;;;;;;;8.04;87.73;102527.39;112203;1192;72620;-71
2021/10/09 08:40:50;;;;;;;16.20;8.20;;;;;;;8.34;87.08;102528.40;112282;1192;60174;-72
2021/10/09 08:43:16;;;;;;;13.00;8.10;;;;;;;8.46;86.63;102530.90;112286;1191;60267;-72
2021/10/09 08:45:45;;;;;;;21.60;8.60;;;;;;;8.59;85.65;102533.44;112170;1192;71122;-72
2021/10/09 08:48:12;;;;;;;19.00;9.20;;;;;;;8.67;84.71;102534.77;112243;1192;73640;-76
2021/10/09 08:50:42;;;;;;;13.10;7.60;;;;;;;8.77;84.98;102537.53;112186;1192;61978;-72
2021/10/09 08:53:11;;;;;;;16.20;7.90;;;;;;;8.89;84.30;102539.21;112235;1192;61324;-74
2021/10/09 08:55:44;;;;;;;12.50;7.40;;;;;;;9.00;84.03;102536.10;112164;1193;74931;-74
2021/10/09 08:58:28;;;;;;;14.40;7.50;;;;;;;9.11;83.51;102535.02;112493;1192;72519;-72
2021/10/09 09:01:09;;;;;;;15.90;8.50;;;;;;;9.21;82.06;102534.83;112290;1193;71132;-72
2021/10/09 09:04:24;;;;;;;21.60;9.70;;;;;;;9.29;81.78;102531.51;112295;1193;61971;-72
2021/10/09 09:26:34;;;;;;;15.50;9.40;;;;;;;10.29;78.57;102523.66;112324;1192;72257;-74
2021/10/09 09:32:15;;;;;;;14.20;9.20;;;;;;;10.48;78.31;102522.56;112192;1192;60396;-73
2021/10/09 09:40:12;;;;;;;22.00;10.50;;;;;;;10.77;77.38;102511.23;112202;1192;72216;-75
2021/10/09 09:42:47;;;;;;;16.00;9.20;;;;;;;10.90;77.11;102513.20;112088;1193;72524;-74
2021/10/09 09:45:22;;;;;;;16.30;9.10;;;;;;;11.02;77.22;102514.98;112197;1192;60348;-75
2021/10/09 09:47:48;;;;;;;19.80;9.40;;;;;;;11.13;76.19;102511.67;112705;1193;60327;-74
2021/10/09 09:50:15;;;;;;;12.60;7.70;;;;;;;11.26;76.37;102510.20;112219;1193;74901;-75
2021/10/09 09:52:44;;;;;;;19.00;9.00;;;;;;;11.35;75.72;102512.05;112859;1192;69307;-74
2021/10/09 09:55:16;;;;;;;15.40;7.90;;;;;;;11.46;75.49;102506.19;112880;1192;73913;-74
2021/10/09 09:58:05;;;;;;;16.80;8.40;;;;;;;11.58;74.38;102504.04;112778;1192;60582;-75
2021/10/09 10:00:34;;;;;;;20.40;10.00;;;;;;;11.65;74.23;102503.59;112607;1193;61205;-75
2021/10/09 10:03:03;;;;;;;15.20;9.20;;;;;;;11.76;75.27;102505.95;112321;1192;73938;-75
2021/10/09 10:05:30;;;;;;;19.00;8.70;;;;;;;11.87;73.42;102503.40;112326;1192;70184;-74
2021/10/09 10:07:57;;;;;;;16.10;8.80;;;;;;;11.91;73.00;102506.03;112223;1192;73585;-75
2021/10/09 10:10:24;;;;;;;17.80;8.70;;;;;;;11.99;72.75;102508.35;112367;1192;63053;-74
2021/10/09 10:12:56;;;;;;;18.10;10.10;;;;;;;12.05;71.78;102503.53;112371;1192;61251;-73
2021/10/09 10:15:31;;;;;;;16.30;7.80;;;;;;;12.12;72.18;102503.73;112347;1192;74776;-73
2021/10/09 10:17:58;;;;;;;20.80;9.70;;;;;;;12.23;71.14;102500.67;112145;1192;70971;-74
2021/10/09 10:20:47;;;;;;;14.10;7.50;;;;;;;12.31;71.02;102500.10;112114;1192;72613;-75
2021/10/09 10:23:36;;;;;;;14.30;8.10;;;;;;;12.39;70.16;102499.83;112155;1192;60230;-75
2021/10/09 10:26:27;;;;;;;17.10;8.20;;;;;;;12.45;68.56;102499.66;112235;1191;61348;-74
2021/10/09 10:28:57;;;;;;;15.40;7.50;;;;;;;12.51;67.76;102494.52;112635;1191;74902;-75
2021/10/09 10:31:26;;;;;;;12.70;7.90;;;;;;;12.55;67.11;102494.17;112236;1192;70990;-75
2021/10/09 10:34:18;;;;;;;14.90;7.70;;;;;;;12.59;66.08;102494.42;112248;1192;73491;-75
2021/10/09 10:36:46;;;;;;;13.70;7.10;;;;;;;12.63;65.55;102493.20;112178;1192;60759;-75
2021/10/09 10:39:20;;;;;;;15.40;8.00;;;;;;;12.70;66.17;102493.84;112432;1192;60262;-74
2021/10/09 10:41:54;;;;;;;;;;;;;;;12.81;65.59;102495.39;112299;1192;73925;-73
2021/10/09 10:44:59;;;;;;;16.30;7.60;;;;;;;12.89;65.25;102496.63;112302;1191;72024;-75
2021/10/09 10:48:14;;;;;;;12.50;6.80;;;;;;;12.99;64.52;102489.08;112487;1191;75195;-75
2021/10/09 10:50:48;;;;;;;13.80;7.10;;;;;;;13.12;64.05;102488.90;112501;1193;61620;-74
2021/10/09 10:53:24;;;;;;;15.20;8.00;;;;;;;13.22;63.76;102487.37;112272;1192;61453;-74
2021/10/09 10:56:09;;;;;;;11.20;6.00;;;;;;;13.30;61.86;102479.77;112302;1191;74844;-76
2021/10/09 10:58:37;;;;;;;12.70;6.80;;;;;;;13.33;60.93;102480.33;112507;1192;71523;-75
2021/10/09 11:01:19;;;;;;;8.80;4.80;;;;;;;13.40;61.99;102476.06;112362;1192;72832;-75
2021/10/09 11:03:50;;;;;;;13.10;7.00;;;;;;;13.50;60.75;102476.07;112428;1192;60456;-78
2021/10/09 11:06:18;;;;;;;11.40;7.10;;;;;;;13.59;60.80;102473.02;112366;1192;60868;-74
2021/10/09 11:08:46;;;;;;;12.60;7.40;;;;;;;13.68;59.87;102472.13;112503;1193;74995;-75
2021/10/09 11:11:13;;;;;;;13.00;6.90;;;;;;;13.73;59.25;102469.69;112426;1193;72412;-74
2021/10/09 11:13:45;;;;;;;16.40;7.90;;;;;;;13.76;58.00;102471.10;112330;1193;72730;-73
2021/10/09 11:16:12;;;;;;;13.60;6.80;;;;;;;13.82;58.34;102469.29;112349;1192;60230;-73
2021/10/09 11:18:50;;;;;;;10.30;6.10;;;;;;;13.93;57.60;102466.80;112308;1193;60617;-74
2021/10/09 11:21:17;;;;;;;13.50;6.00;;;;;;;14.05;57.03;102463.08;112145;1192;74791;-74
2021/10/09 11:23:52;;;;;;;10.70;5.10;;;;;;;14.18;55.53;102465.83;112579;1192;71096;-75
2021/10/09 11:26:20;;;;;;;12.90;6.40;;;;;;;14.32;55.26;102467.70;112575;1193;73496;-74
2021/10/09 11:28:58;;;;;;;13.20;6.20;;;;;;;14.42;54.69;102465.45;112571;1193;60245;-75
2021/10/09 11:31:26;;;;;;;12.60;5.20;;;;;;;14.67;55.18;102460.16;112422;1193;60327;-72
2021/10/09 11:33:58;;;;;;;12.20;6.30;;;;;;;15.08;54.74;102454.66;112465;1193;73765;-72
2021/10/09 11:36:25;;;;;;;13.40;6.10;;;;;;;15.59;52.92;102446.90;112533;1192;72416;-73
2021/10/09 11:39:02;;;;;;;10.30;6.50;;;;;;;16.12;51.21;102451.99;112170;1192;72700;-73
2021/10/09 11:41:29;;;;;;;12.10;5.80;;;;;;;16.65;48.55;102450.94;112387;1192;61551;-72
2021/10/09 11:46:54;;;;;;;12.50;6.20;;;;;;;17.58;45.63;102442.94;112386;1193;73832;-73
2021/10/09 11:55:20;;;;;;;13.50;5.50;;;;;;;19.33;41.07;102443.51;112220;1193;61468;-74
2021/10/09 11:57:48;;;;;;;10.50;5.60;;;;;;;19.99;39.12;102441.80;112361;1191;60284;-74
2021/10/09 12:00:37;;;;;;;11.90;5.70;;;;;;;20.62;38.32;102435.75;112556;1191;74815;-73
2021/10/09 12:03:26;;;;;;;9.20;5.80;;;;;;;21.18;36.03;102435.58;112391;1193;71827;-72
2021/10/09 12:06:13;;;;;;;10.40;5.50;;;;;;;21.69;35.07;102431.23;112384;1193;72666;-72
2021/10/09 12:08:54;;;;;;;10.70;6.00;;;;;;;22.18;34.11;102429.68;112445;1192;61005;-73
2021/10/09 12:11:23;;;;;;;9.90;4.90;;;;;;;22.71;33.05;102430.64;112998;1191;61046;-74
2021/10/09 12:14:00;;;;;;;7.60;4.80;;;;;;;23.19;32.10;102424.66;112418;1193;74524;-73
2021/10/09 12:16:32;;;;;;;9.40;5.30;;;;;;;24.04;31.75;102417.90;112275;1192;73008;-73
2021/10/09 12:19:03;;;;;;;8.60;4.60;;;;;;;24.81;29.42;102418.17;112488;1193;72513;-73
2021/10/09 12:21:33;;;;;;;10.00;4.80;;;;;;;25.56;27.87;102410.65;112213;1192;61267;-73
2021/10/09 12:24:14;;;;;;;6.70;4.60;;;;;;;26.03;26.24;102416.23;112466;1193;60662;-73
2021/10/09 12:26:41;;;;;;;6.90;4.10;;;;;;;26.39;24.71;102413.30;112273;1193;74125;-74
2021/10/09 12:29:10;;;;;;;6.90;3.60;;;;;;;26.61;23.88;102410.47;112416;1193;71436;-74
2021/10/09 12:31:43;;;;;;;4.90;3.70;;;;;;;27.00;23.27;102413.52;112476;1192;73642;-74
2021/10/09 12:34:33;;;;;;;6.40;3.80;;;;;;;27.47;23.67;102410.35;112315;1192;60210;-74
2021/10/09 12:37:29;;;;;;;6.00;3.50;;;;;;;28.13;22.73;102401.30;112401;1193;61475;-74
2021/10/09 12:40:12;;;;;;;8.00;3.70;;;;;;;28.47;21.67;102396.23;112415;1193;75688;-74
2021/10/09 12:42:48;;;;;;;7.70;3.60;;;;;;;28.93;21.03;102391.73;112163;1192;71358;-74
2021/10/09 12:45:15;;;;;;;5.80;4.00;;;;;;;29.21;20.36;102386.90;112098;1194;74054;-74
2021/10/09 12:47:51;;;;;;;7.20;3.20;;;;;;;29.60;20.75;102382.36;112370;1193;61374;-74
2021/10/09 12:50:18;;;;;;;8.10;3.40;;;;;;;30.02;20.16;102382.91;112227;1193;61499;-73
2021/10/09 12:52:46;;;;;;;7.20;3.40;;;;;;;30.22;19.91;102380.88;112270;1192;73808;-75
2021/10/09 12:55:14;;;;;;;5.60;3.10;;;;;;;30.61;19.90;102380.38;112067;1192;72156;-73
2021/10/09 12:57:51;;;;;;;5.10;3.50;;;;;;;31.03;19.78;102381.48;112187;1193;73915;-73
2021/10/09 13:00:19;;;;;;;6.00;3.70;;;;;;;31.37;19.22;102378.42;112294;1192;60660;-75
2021/10/09 13:02:45;;;;;;;5.60;3.20;;;;;;;31.81;18.75;102381.63;112494;1191;60159;-76
2021/10/09 13:05:13;;;;;;;6.30;3.50;;;;;;;32.10;18.75;102379.98;112254;1192;73768;-74
2021/10/09 13:07:39;;;;;;;4.70;3.20;;;;;;;32.22;17.82;102372.84;112303;1192;71175;-74
2021/10/09 13:10:07;;;;;;;5.60;3.30;;;;;;;32.42;17.79;102374.02;112266;1192;60169;-74
2021/10/09 13:12:33;;;;;;;6.50;3.30;;;;;;;32.52;17.53;102372.66;112314;1193;60248;-73
2021/10/09 13:15:00;;;;;;;4.40;2.80;;;;;;;32.70;17.92;102373.61;112166;1193;60448;-74
2021/10/09 13:17:27;;;;;;;4.90;3.30;;;;;;;32.65;17.44;102370.84;112214;1193;74877;-75
2021/10/09 13:19:53;;;;;;;5.70;3.20;;;;;;;32.68;17.55;102365.33;112341;1192;72806;-73
2021/10/09 13:22:20;;;;;;;4.90;3.30;;;;;;;32.76;17.30;102362.75;112202;1193;72521;-75